Time;durP1;ratioP1;P1;durP2;ratioP2;P2;SDS_P1;SDS_P2;PMS_P1;PMS_P2;Temp;Humidity;BMP_temperature;BMP_pressure;BME280_temperature;BME280_humidity;BME280_pressure;Samples;Min_cycle;Max_cycle;Signal;HPM_P1;HPM_P2
2024/04/03 00:01:14;;;;;;;10.85;4.65;;;12.60;65.90;;;;;;4975109;28;20072;-66
2024/04/03 00:03:42;;;;;;;15.18;4.85;;;12.50;65.20;;;;;;4971401;28;20208;-68
2024/04/03 00:06:08;;;;;;;8.25;4.85;;;12.60;64.40;;;;;;4972761;28;20043;-68
2024/04/03 00:08:34;;;;;;;7.03;4.57;;;12.60;64.60;;;;;;4979732;28;20381;-69
2024/04/03 00:11:00;;;;;;;7.35;4.57;;;12.50;65.40;;;;;;4971157;28;20050;-69
2024/04/03 00:13:28;;;;;;;11.32;5.22;;;12.30;65.50;;;;;;4974331;28;20035;-69
2024/04/03 00:15:56;;;;;;;8.40;4.72;;;12.30;65.50;;;;;;4982848;28;20041;-69
2024/04/03 00:18:23;;;;;;;6.88;4.30;;;12.50;63.90;;;;;;4985328;28;20381;-68
2024/04/03 00:20:58;;;;;;;5.80;4.13;;;12.70;63.20;;;;;;4983867;28;20373;-68
2024/04/03 00:23:24;;;;;;;11.05;4.75;;;12.60;63.30;;;;;;4970789;28;20110;-68
2024/04/03 00:26:01;;;;;;;8.65;4.60;;;12.60;63.70;;;;;;4975179;28;20058;-66
2024/04/03 00:28:28;;;;;;;8.95;4.70;;;12.60;64.00;;;;;;5028522;28;20473;-71
2024/04/03 00:30:55;;;;;;;6.38;4.30;;;12.60;64.80;;;;;;4984914;28;20030;-69
2024/04/03 00:33:22;;;;;;;5.85;4.22;;;12.30;64.10;;;;;;4971153;28;20134;-68
2024/04/03 00:36:01;;;;;;;5.45;4.28;;;12.00;64.70;;;;;;4970917;28;20042;-69
2024/04/03 00:38:27;;;;;;;5.80;4.55;;;12.00;65.50;;;;;;4973301;28;20038;-68
2024/04/03 00:41:00;;;;;;;8.05;4.63;;;12.10;65.50;;;;;;4974037;28;20493;-69
2024/04/03 00:43:28;;;;;;;7.50;4.35;;;12.20;65.10;;;;;;4972193;28;20085;-68
2024/04/03 00:45:58;;;;;;;6.18;4.20;;;12.10;64.90;;;;;;4972522;28;20026;-69
2024/04/03 00:48:25;;;;;;;7.70;4.65;;;12.20;65.10;;;;;;4977181;28;20089;-68
2024/04/03 00:50:53;;;;;;;5.63;4.38;;;12.00;66.30;;;;;;4970399;28;20042;-70
2024/04/03 00:53:20;;;;;;;5.50;4.22;;;12.20;66.20;;;;;;4966941;28;20069;-70
2024/04/03 00:55:47;;;;;;;6.50;4.45;;;12.10;67.00;;;;;;4970678;28;20042;-67
2024/04/03 00:58:13;;;;;;;5.65;4.25;;;12.10;68.30;;;;;;4970594;28;20489;-71
2024/04/03 01:00:39;;;;;;;6.78;4.03;;;12.10;67.00;;;;;;4970589;28;20049;-68
2024/04/03 01:03:06;;;;;;;7.10;3.83;;;12.30;66.20;;;;;;4978730;28;20034;-69
2024/04/03 01:05:33;;;;;;;5.72;4.00;;;12.30;63.00;;;;;;4981212;28;20049;-67
2024/04/03 01:07:59;;;;;;;6.07;4.47;;;12.20;66.10;;;;;;4973043;28;20508;-70
2024/04/03 01:10:26;;;;;;;8.18;4.43;;;12.10;66.50;;;;;;4974122;28;20039;-69
2024/04/03 01:12:54;;;;;;;4.65;4.03;;;12.00;67.40;;;;;;4977491;28;20385;-67
2024/04/03 01:15:23;;;;;;;5.97;4.07;;;11.90;67.70;;;;;;4950699;28;20578;-69
2024/04/03 01:17:50;;;;;;;10.02;4.45;;;11.90;67.30;;;;;;4970387;28;20088;-69
2024/04/03 01:20:16;;;;;;;6.35;4.10;;;12.00;66.90;;;;;;4967114;28;20473;-68
2024/04/03 01:22:42;;;;;;;5.88;4.15;;;12.00;67.50;;;;;;4974080;28;20035;-70
2024/04/03 01:25:09;;;;;;;6.13;4.25;;;12.00;67.30;;;;;;4970188;28;20096;-70
2024/04/03 01:27:35;;;;;;;6.47;3.90;;;12.00;67.40;;;;;;4956042;28;20069;-69
2024/04/03 01:30:01;;;;;;;9.45;4.43;;;12.00;67.40;;;;;;4969667;28;20031;-68
2024/04/03 01:32:28;;;;;;;8.18;4.15;;;12.10;67.40;;;;;;4983621;28;20040;-68
2024/04/03 01:34:54;;;;;;;6.15;4.30;;;12.00;67.40;;;;;;4974513;28;20042;-69
2024/04/03 01:37:21;;;;;;;6.00;4.20;;;11.90;67.70;;;;;;4969588;28;20061;-70
2024/04/03 01:39:47;;;;;;;7.22;4.43;;;11.80;67.70;;;;;;4969963;28;20047;-69
2024/04/03 01:42:14;;;;;;;5.40;4.03;;;11.90;67.90;;;;;;4971186;28;20108;-69
2024/04/03 01:44:40;;;;;;;5.80;4.10;;;11.80;68.60;;;;;;4990553;28;20448;-69
2024/04/03 01:47:06;;;;;;;6.22;4.25;;;11.70;68.80;;;;;;4969432;28;20039;-69
2024/04/03 01:49:33;;;;;;;5.32;3.85;;;11.80;69.00;;;;;;4969745;28;20039;-69
2024/04/03 01:51:59;;;;;;;7.53;4.80;;;11.70;70.00;;;;;;4966253;28;20574;-70
2024/04/03 01:54:27;;;;;;;8.15;4.47;;;11.70;70.70;;;;;;4972735;28;20054;-71
2024/04/03 01:56:54;;;;;;;6.72;4.50;;;11.60;70.80;;;;;;4972562;28;20084;-68
2024/04/03 01:59:21;;;;;;;5.70;4.30;;;11.80;69.10;;;;;;4969693;28;20034;-68
2024/04/03 02:01:47;;;;;;;7.75;4.45;;;11.80;69.20;;;;;;4972562;28;20046;-68
2024/04/03 02:04:13;;;;;;;7.07;4.05;;;11.70;69.80;;;;;;4972882;28;20054;-68
2024/04/03 02:06:40;;;;;;;5.35;4.47;;;11.60;70.00;;;;;;4972640;28;20037;-69
2024/04/03 02:09:07;;;;;;;6.95;3.75;;;11.60;70.20;;;;;;4972620;28;20473;-68
2024/04/03 02:11:33;;;;;;;9.02;4.50;;;11.40;69.80;;;;;;4974247;28;20129;-67
2024/04/03 02:14:00;;;;;;;6.55;4.32;;;11.50;70.70;;;;;;4971922;28;20030;-68
2024/04/03 02:16:29;;;;;;;6.28;3.80;;;11.50;71.60;;;;;;4971627;28;20397;-69
2024/04/03 02:18:56;;;;;;;11.88;4.47;;;11.40;72.20;;;;;;4977372;28;20042;-70
2024/04/03 02:21:23;;;;;;;6.70;4.20;;;11.30;71.50;;;;;;4975521;28;20030;-69
2024/04/03 02:23:49;;;;;;;7.22;4.90;;;11.30;71.60;;;;;;4972168;28;20046;-70
2024/04/03 02:26:15;;;;;;;6.50;4.70;;;11.30;70.90;;;;;;4985311;28;20038;-70
2024/04/03 02:28:41;;;;;;;7.65;4.47;;;11.20;71.10;;;;;;5023989;28;20101;-70
2024/04/03 02:31:08;;;;;;;6.13;4.55;;;11.20;70.80;;;;;;4973041;28;20026;-70
2024/04/03 02:33:34;;;;;;;6.13;4.68;;;10.90;71.70;;;;;;4988280;28;20117;-68
2024/04/03 02:36:09;;;;;;;7.13;4.38;;;10.80;71.80;;;;;;4972662;28;20498;-68
2024/04/03 02:38:35;;;;;;;8.75;4.95;;;10.90;70.30;;;;;;4984950;28;20034;-70
2024/04/03 02:41:01;;;;;;;8.15;4.78;;;10.90;67.70;;;;;;4972667;28;20039;-66
2024/04/03 02:43:27;;;;;;;5.35;3.97;;;10.70;68.50;;;;;;4971805;28;20064;-69
2024/04/03 02:45:59;;;;;;;8.65;4.50;;;10.70;68.60;;;;;;4972155;28;20038;-69
2024/04/03 02:48:25;;;;;;;9.43;5.05;;;10.90;68.10;;;;;;5036567;28;20038;-69
2024/04/03 02:51:05;;;;;;;8.80;4.63;;;10.60;69.40;;;;;;4972324;28;20038;-70
2024/04/03 02:53:32;;;;;;;6.20;4.88;;;10.70;70.50;;;;;;4960507;28;20042;-70
2024/04/03 02:56:03;;;;;;;8.50;4.88;;;10.70;70.80;;;;;;4972095;28;20389;-71
2024/04/03 02:58:30;;;;;;;6.28;4.57;;;10.80;70.50;;;;;;4972216;28;20423;-69
2024/04/03 03:01:04;;;;;;;6.55;4.85;;;10.70;70.70;;;;;;4971718;28;20031;-69
2024/04/03 03:03:31;;;;;;;7.40;5.20;;;10.40;70.60;;;;;;4972112;28;20433;-69
2024/04/03 03:06:03;;;;;;;8.95;5.35;;;10.30;71.90;;;;;;4953639;28;20034;-71
2024/04/03 03:08:31;;;;;;;5.90;5.03;;;10.00;72.90;;;;;;4983247;28;20102;-69
2024/04/03 03:10:58;;;;;;;7.35;5.18;;;10.00;73.50;;;;;;4972602;28;20084;-70
2024/04/03 03:13:26;;;;;;;6.85;5.15;;;10.30;72.80;;;;;;4983677;28;20042;-71
2024/04/03 03:15:53;;;;;;;6.40;4.85;;;10.40;72.30;;;;;;4972008;28;20042;-68
2024/04/03 03:18:21;;;;;;;7.95;5.30;;;10.50;71.70;;;;;;4971843;28;20065;-68
2024/04/03 03:20:48;;;;;;;6.95;5.40;;;10.30;72.50;;;;;;4972236;28;20513;-70
2024/04/03 03:23:16;;;;;;;6.85;5.20;;;10.40;72.80;;;;;;4992981;28;20033;-70
2024/04/03 03:25:44;;;;;;;6.68;5.00;;;10.50;72.60;;;;;;4971789;28;20030;-69
2024/04/03 03:28:11;;;;;;;8.45;5.28;;;10.30;73.10;;;;;;4976921;28;20034;-71
2024/04/03 03:30:37;;;;;;;6.40;5.20;;;10.20;73.50;;;;;;4978222;28;20039;-67
2024/04/03 03:33:04;;;;;;;7.43;5.05;;;10.30;72.50;;;;;;4990521;28;20048;-68
2024/04/03 03:35:31;;;;;;;7.35;5.10;;;10.20;72.40;;;;;;4972177;28;20132;-70
2024/04/03 03:37:57;;;;;;;10.73;5.28;;;10.00;73.00;;;;;;4971755;28;20100;-68
2024/04/03 03:40:24;;;;;;;5.60;4.38;;;9.70;74.30;;;;;;4989790;28;20037;-69
2024/04/03 03:42:50;;;;;;;8.60;5.18;;;9.60;74.80;;;;;;4978104;28;20031;-69
2024/04/03 03:45:20;;;;;;;9.27;5.25;;;9.80;74.50;;;;;;4971931;28;20428;-69
2024/04/03 03:47:47;;;;;;;8.52;5.90;;;9.80;74.20;;;;;;4971164;28;20046;-70
2024/04/03 03:52:59;;;;;;;10.50;6.00;;;9.70;74.30;;;;;;4971355;28;20030;-70
2024/04/03 03:55:31;;;;;;;7.95;5.70;;;9.60;74.70;;;;;;4971174;28;20038;-70
2024/04/03 03:57:59;;;;;;;9.32;5.70;;;9.50;75.00;;;;;;4970999;28;20116;-70
2024/04/03 04:00:25;;;;;;;6.28;5.10;;;9.70;74.60;;;;;;4971512;28;20030;-68
2024/04/03 04:02:52;;;;;;;7.15;5.55;;;9.70;74.60;;;;;;4956163;28;20100;-70
2024/04/03 04:05:19;;;;;;;8.43;5.50;;;9.60;75.30;;;;;;4971122;28;20412;-70
2024/04/03 04:07:47;;;;;;;6.47;5.28;;;9.70;75.20;;;;;;4977191;28;20061;-70
2024/04/03 04:10:13;;;;;;;8.60;5.97;;;9.90;74.20;;;;;;4977122;28;20061;-70
2024/04/03 04:12:39;;;;;;;9.10;6.05;;;10.00;74.50;;;;;;4971054;28;20629;-71
2024/04/03 04:15:07;;;;;;;7.53;5.57;;;9.90;74.40;;;;;;4983719;28;20389;-71
2024/04/03 04:17:33;;;;;;;10.27;6.53;;;9.80;75.00;;;;;;4970993;28;20030;-69
2024/04/03 04:19:59;;;;;;;10.82;6.82;;;9.60;75.40;;;;;;4972475;28;20042;-66
2024/04/03 04:22:26;;;;;;;11.50;6.57;;;9.70;75.00;;;;;;4986403;28;20127;-70
2024/04/03 04:24:54;;;;;;;9.88;6.70;;;9.60;75.90;;;;;;4970673;28;20034;-69
2024/04/03 04:27:22;;;;;;;8.95;6.63;;;9.80;75.50;;;;;;4983890;28;20042;-68
2024/04/03 04:29:49;;;;;;;13.05;8.25;;;9.90;75.50;;;;;;4983593;28;20034;-70
2024/04/03 04:32:16;;;;;;;13.73;8.60;;;9.70;76.20;;;;;;4971205;28;20068;-69
2024/04/03 04:34:42;;;;;;;13.00;7.95;;;9.50;76.50;;;;;;4976138;28;20381;-69
2024/04/03 04:37:09;;;;;;;11.13;6.82;;;9.50;76.20;;;;;;4979199;28;20374;-68
2024/04/03 04:39:36;;;;;;;11.25;6.63;;;9.70;76.20;;;;;;4975607;28;20057;-69
2024/04/03 04:42:02;;;;;;;9.20;6.18;;;9.60;75.80;;;;;;4976960;28;20087;-68
2024/04/03 04:44:29;;;;;;;14.32;6.50;;;9.70;75.60;;;;;;4973971;28;20362;-68
2024/04/03 04:46:57;;;;;;;8.68;5.57;;;9.70;75.00;;;;;;4973316;28;20099;-69
2024/04/03 04:49:23;;;;;;;11.45;6.18;;;9.60;75.30;;;;;;4976738;28;20035;-69
2024/04/03 04:51:50;;;;;;;8.80;5.93;;;9.60;75.90;;;;;;4986564;28;20094;-69
2024/04/03 04:54:17;;;;;;;8.88;6.32;;;9.50;76.10;;;;;;4971421;28;20806;-69
2024/04/03 04:56:44;;;;;;;8.68;5.88;;;9.70;75.00;;;;;;4980652;28;20060;-69
2024/04/03 04:59:14;;;;;;;13.27;6.00;;;9.80;75.00;;;;;;4980305;28;20357;-70
2024/04/03 05:01:42;;;;;;;14.57;9.32;;;9.70;75.00;;;;;;4967500;28;20505;-71
2024/04/03 05:04:10;;;;;;;13.52;7.88;;;9.50;76.60;;;;;;4984122;28;20042;-71
2024/04/03 05:06:37;;;;;;;26.70;15.13;;;9.40;77.30;;;;;;4976779;28;20030;-69
2024/04/03 05:09:05;;;;;;;18.30;9.95;;;9.80;76.70;;;;;;4978329;28;20026;-66
2024/04/03 05:11:31;;;;;;;44.00;24.67;;;10.00;75.70;;;;;;4976872;28;20038;-69
2024/04/03 05:13:58;;;;;;;40.15;25.88;;;10.00;76.60;;;;;;4978198;28;20030;-71
2024/04/03 05:16:24;;;;;;;23.08;15.27;;;10.60;75.00;;;;;;4971056;28;20052;-69
2024/04/03 05:18:51;;;;;;;11.50;7.28;;;10.70;74.20;;;;;;4975697;28;20374;-66
2024/04/03 05:21:23;;;;;;;9.60;6.25;;;10.70;73.50;;;;;;4974913;28;20370;-71
2024/04/03 05:23:49;;;;;;;9.38;5.93;;;10.60;73.50;;;;;;4982178;28;20389;-68
2024/04/03 05:26:17;;;;;;;9.50;5.70;;;10.60;73.70;;;;;;4985911;28;20034;-66
2024/04/03 05:28:43;;;;;;;12.00;5.88;;;10.70;73.40;;;;;;4973564;28;20534;-67
2024/04/03 05:31:14;;;;;;;9.63;5.57;;;10.80;73.70;;;;;;4984336;28;20366;-68
2024/04/03 05:33:41;;;;;;;8.07;5.95;;;10.90;73.40;;;;;;4975414;28;20034;-68
2024/04/03 05:36:09;;;;;;;8.93;5.85;;;10.90;73.40;;;;;;4980219;28;20035;-68
2024/04/03 05:38:38;;;;;;;10.45;5.57;;;10.90;73.90;;;;;;4966797;28;20103;-68
2024/04/03 05:41:04;;;;;;;10.55;6.40;;;11.00;73.50;;;;;;4971647;28;20042;-67
2024/04/03 05:43:31;;;;;;;9.55;5.97;;;10.90;74.10;;;;;;4956297;28;20045;-68
2024/04/03 05:45:57;;;;;;;8.57;5.72;;;11.10;73.90;;;;;;4978355;28;20422;-68
2024/04/03 05:48:25;;;;;;;8.68;6.15;;;11.30;73.20;;;;;;4983341;28;20034;-69
2024/04/03 05:51:06;;;;;;;8.50;5.55;;;11.30;73.40;;;;;;4972807;28;20042;-67
2024/04/03 05:53:35;;;;;;;16.17;6.13;;;11.20;72.10;;;;;;4972625;28;20038;-69
2024/04/03 05:56:04;;;;;;;10.00;5.97;;;11.30;71.50;;;;;;4973003;28;20058;-68
2024/04/03 05:58:30;;;;;;;40.22;22.83;;;11.20;72.00;;;;;;4979355;28;20419;-70
2024/04/03 06:00:59;;;;;;;14.27;8.95;;;11.30;71.80;;;;;;4972564;28;20042;-66
2024/04/03 06:03:26;;;;;;;10.50;5.65;;;10.90;72.60;;;;;;4969165;28;20142;-68
2024/04/03 06:05:57;;;;;;;7.88;5.70;;;10.80;73.10;;;;;;4972281;28;20038;-67
2024/04/03 06:08:24;;;;;;;6.82;5.05;;;11.20;71.80;;;;;;4979511;28;20030;-68
2024/04/03 06:10:51;;;;;;;8.65;4.60;;;11.20;71.50;;;;;;4976380;28;20083;-69
2024/04/03 06:13:19;;;;;;;9.63;5.20;;;11.40;71.10;;;;;;4977109;28;20038;-69
2024/04/03 06:15:46;;;;;;;9.95;5.20;;;11.50;70.60;;;;;;4975620;28;20026;-69
2024/04/03 06:18:12;;;;;;;7.85;5.60;;;11.60;70.60;;;;;;4972393;28;20378;-68
2024/04/03 06:20:39;;;;;;;9.30;5.60;;;11.80;70.90;;;;;;4977361;28;20038;-70
2024/04/03 06:23:05;;;;;;;8.77;5.10;;;11.60;70.60;;;;;;4977780;28;20038;-67
2024/04/03 06:25:31;;;;;;;10.82;5.70;;;11.80;70.60;;;;;;4979889;28;20046;-69
2024/04/03 06:27:58;;;;;;;9.27;5.28;;;12.10;70.30;;;;;;4970563;28;20037;-68
2024/04/03 06:30:24;;;;;;;10.35;5.70;;;12.30;70.20;;;;;;4970951;28;20295;-69
2024/04/03 06:32:50;;;;;;;12.65;5.88;;;12.50;70.00;;;;;;4982538;28;20045;-70
2024/04/03 06:35:18;;;;;;;22.25;6.65;;;12.60;69.40;;;;;;4973804;28;20381;-69
2024/04/03 06:37:45;;;;;;;15.50;6.93;;;12.50;69.50;;;;;;4956499;28;20443;-69
2024/04/03 06:40:13;;;;;;;17.73;7.20;;;12.50;70.30;;;;;;4972001;28;20038;-68
2024/04/03 06:42:40;;;;;;;15.32;6.97;;;12.30;70.80;;;;;;4975919;28;20253;-70
2024/04/03 06:45:06;;;;;;;13.93;6.88;;;12.50;71.30;;;;;;4971847;28;20382;-70
2024/04/03 06:47:33;;;;;;;12.43;6.43;;;12.70;71.40;;;;;;4983881;28;20083;-70
2024/04/03 06:49:59;;;;;;;15.43;6.55;;;12.90;71.50;;;;;;4978270;28;20388;-69
2024/04/03 06:52:26;;;;;;;12.05;6.57;;;12.90;70.20;;;;;;4978608;28;20083;-69
2024/04/03 06:54:56;;;;;;;14.35;6.20;;;12.70;70.60;;;;;;4984965;28;20031;-70
2024/04/03 06:57:23;;;;;;;11.80;6.15;;;12.80;71.00;;;;;;4971975;28;20030;-68
2024/04/03 06:59:49;;;;;;;16.50;6.90;;;13.00;71.00;;;;;;4971997;28;20035;-67
2024/04/03 07:02:15;;;;;;;10.70;6.72;;;13.10;71.00;;;;;;4966337;28;20389;-66
2024/04/03 07:04:42;;;;;;;10.15;6.40;;;13.20;70.80;;;;;;4971316;28;20088;-66
2024/04/03 07:07:08;;;;;;;12.75;6.55;;;13.30;70.20;;;;;;4971722;28;20389;-67
2024/04/03 07:09:37;;;;;;;11.73;6.45;;;13.30;70.40;;;;;;4972129;28;20042;-69
2024/04/03 07:12:04;;;;;;;11.93;6.18;;;13.40;70.20;;;;;;4971644;28;20117;-69
2024/04/03 07:14:31;;;;;;;11.63;6.13;;;13.50;69.50;;;;;;4962726;28;20118;-68
2024/04/03 07:16:57;;;;;;;9.27;5.45;;;13.70;68.20;;;;;;4978327;28;20387;-69
2024/04/03 07:19:27;;;;;;;9.18;5.53;;;13.70;68.80;;;;;;4990833;28;20414;-69
2024/04/03 07:21:55;;;;;;;10.30;5.90;;;13.70;68.40;;;;;;4973518;28;20038;-68
2024/04/03 07:24:22;;;;;;;18.60;5.93;;;13.80;68.60;;;;;;4976330;28;20392;-68
2024/04/03 07:26:48;;;;;;;9.60;5.97;;;13.90;67.80;;;;;;4983706;28;20389;-68
2024/04/03 07:29:15;;;;;;;11.32;6.03;;;13.90;68.10;;;;;;4984516;28;20045;-68
2024/04/03 07:31:42;;;;;;;12.13;5.10;;;14.10;68.50;;;;;;4979004;28;20041;-70
2024/04/03 07:34:08;;;;;;;11.25;5.45;;;14.10;68.70;;;;;;4978698;28;20093;-68
2024/04/03 07:36:34;;;;;;;13.77;5.70;;;14.40;67.70;;;;;;4976766;28;20473;-69
2024/04/03 07:39:01;;;;;;;11.32;5.20;;;14.60;67.20;;;;;;4971436;28;20068;-67
2024/04/03 07:41:32;;;;;;;12.68;4.90;;;14.40;65.30;;;;;;4969051;28;20095;-70
2024/04/03 07:43:58;;;;;;;8.38;4.50;;;14.50;65.90;;;;;;4982619;28;20088;-68
2024/04/03 07:46:25;;;;;;;8.60;4.30;;;14.70;64.00;;;;;;4971580;28;20030;-69
2024/04/03 07:48:51;;;;;;;12.32;4.13;;;14.70;64.50;;;;;;4973956;28;20477;-70
2024/04/03 07:51:18;;;;;;;8.60;4.70;;;14.90;64.90;;;;;;4976902;28;20578;-71
2024/04/03 07:53:44;;;;;;;9.32;4.68;;;15.10;63.90;;;;;;4981585;28;20429;-70
2024/04/03 07:56:14;;;;;;;8.50;3.72;;;15.00;63.80;;;;;;4970687;28;20030;-70
2024/04/03 07:58:41;;;;;;;5.80;3.55;;;14.90;63.80;;;;;;4976511;28;20054;-69
2024/04/03 08:01:08;;;;;;;7.25;3.90;;;15.00;64.00;;;;;;4968599;28;20023;-69
2024/04/03 08:03:39;;;;;;;5.57;3.40;;;15.30;63.60;;;;;;4979642;28;20038;-68
2024/04/03 08:06:06;;;;;;;7.22;3.70;;;15.30;62.60;;;;;;4956630;28;20096;-69
2024/04/03 08:08:34;;;;;;;6.47;3.58;;;15.50;62.80;;;;;;4974209;28;20046;-70
2024/04/03 08:11:02;;;;;;;5.47;3.70;;;15.40;62.90;;;;;;4961674;28;20042;-69
2024/04/03 08:13:28;;;;;;;6.43;3.75;;;15.40;63.50;;;;;;4973383;28;20038;-68
2024/04/03 08:16:05;;;;;;;7.35;3.55;;;15.20;63.40;;;;;;4973473;28;20474;-67
2024/04/03 08:18:33;;;;;;;5.90;3.45;;;14.90;63.60;;;;;;4973547;28;20038;-70
2024/04/03 08:21:02;;;;;;;8.32;3.78;;;14.70;64.70;;;;;;4983099;28;20041;-68
2024/04/03 08:23:31;;;;;;;4.70;3.05;;;14.80;64.00;;;;;;4974281;28;20042;-68
2024/04/03 08:26:05;;;;;;;5.97;3.28;;;14.90;63.60;;;;;;4970846;28;20546;-68
2024/04/03 08:28:33;;;;;;;5.95;3.33;;;15.00;63.80;;;;;;4980768;28;20393;-68
2024/04/03 08:30:59;;;;;;;5.78;3.60;;;15.20;63.50;;;;;;4978022;28;20038;-69
2024/04/03 08:33:26;;;;;;;5.35;3.00;;;15.40;64.30;;;;;;4974936;28;20054;-69
2024/04/03 08:36:00;;;;;;;5.93;3.20;;;15.40;63.20;;;;;;4974164;28;20034;-68
2024/04/03 08:38:27;;;;;;;5.25;3.10;;;15.70;62.60;;;;;;4973959;28;20035;-69
2024/04/03 08:40:57;;;;;;;5.10;2.80;;;15.90;63.00;;;;;;4974130;28;20049;-66
2024/04/03 08:43:23;;;;;;;9.00;3.57;;;16.20;63.30;;;;;;4973870;28;20030;-70
2024/04/03 08:45:52;;;;;;;10.57;2.75;;;16.50;62.40;;;;;;4973045;28;20329;-72
2024/04/03 08:48:22;;;;;;;5.00;3.30;;;16.60;60.30;;;;;;4977616;28;20041;-71
2024/04/03 08:50:49;;;;;;;8.65;3.65;;;16.70;60.30;;;;;;4974241;28;20087;-70
2024/04/03 08:53:21;;;;;;;6.70;3.10;;;17.00;58.60;;;;;;4973238;28;20065;-70
2024/04/03 08:55:50;;;;;;;5.40;3.45;;;17.00;58.00;;;;;;4974553;28;20034;-70
2024/04/03 08:58:17;;;;;;;5.22;2.60;;;17.30;57.80;;;;;;4976305;28;20189;-72
2024/04/03 09:00:44;;;;;;;9.02;2.90;;;17.50;58.10;;;;;;4975021;28;20533;-71
2024/04/03 09:03:12;;;;;;;4.85;2.33;;;17.50;57.30;;;;;;4977286;28;20057;-70
2024/04/03 09:05:39;;;;;;;5.68;2.45;;;17.80;57.50;;;;;;4970717;28;20095;-70
2024/04/03 09:08:06;;;;;;;6.45;2.67;;;18.00;55.80;;;;;;4973297;28;20043;-71
2024/04/03 09:10:43;;;;;;;9.45;3.38;;;18.30;56.50;;;;;;4976047;28;20042;-71
2024/04/03 09:13:10;;;;;;;8.25;3.03;;;18.30;56.90;;;;;;4959481;28;20401;-73
2024/04/03 09:15:37;;;;;;;6.72;3.40;;;18.20;56.00;;;;;;4973612;28;20087;-72
2024/04/03 09:18:05;;;;;;;5.90;3.13;;;18.40;56.00;;;;;;4984828;28;20058;-72
2024/04/03 09:20:31;;;;;;;4.10;2.58;;;18.90;55.90;;;;;;4974659;28;20068;-72
2024/04/03 09:22:59;;;;;;;6.05;2.83;;;19.20;55.20;;;;;;4996941;28;20384;-70
2024/04/03 09:25:29;;;;;;;5.25;2.70;;;19.70;55.00;;;;;;4973091;28;20049;-68
2024/04/03 09:28:02;;;;;;;;;;;20.10;53.10;;;;;;4978279;28;20042;-72
2024/04/03 09:30:33;;;;;;;7.97;2.25;;;20.10;52.80;;;;;;4957194;28;19918;-70
2024/04/03 09:33:03;;;;;;;;;;;19.70;51.50;;;;;;4978803;28;20068;-70
2024/04/03 09:35:34;;;;;;;5.37;2.50;;;19.80;52.00;;;;;;4986346;28;20395;-71
2024/04/03 09:38:02;;;;;;;3.42;1.90;;;19.70;49.80;;;;;;4941391;28;20034;-70
2024/04/03 09:40:30;;;;;;;5.22;2.15;;;19.40;50.60;;;;;;4973257;28;20038;-70
2024/04/03 09:43:02;;;;;;;4.95;2.30;;;19.60;52.10;;;;;;4967923;28;20035;-70
2024/04/03 09:45:30;;;;;;;5.00;2.50;;;19.70;51.40;;;;;;4957511;28;20069;-70
2024/04/03 09:48:05;;;;;;;5.00;2.20;;;19.80;51.90;;;;;;4984089;28;20373;-72
2024/04/03 09:50:35;;;;;;;4.47;2.17;;;19.60;50.50;;;;;;4982725;28;20041;-71
2024/04/03 09:53:05;;;;;;;4.40;1.80;;;19.60;50.30;;;;;;4982498;28;20046;-68
2024/04/03 09:55:31;;;;;;;5.70;1.95;;;19.80;48.20;;;;;;4982072;28;20030;-71
2024/04/03 09:58:26;;;;;;;3.22;1.85;;;19.80;47.60;;;;;;4971982;28;20133;-67
2024/04/03 10:00:59;;;;;;;5.78;2.10;;;19.80;48.20;;;;;;4972757;28;20121;-70
2024/04/03 10:03:30;;;;;;;6.05;2.20;;;20.20;49.20;;;;;;4967671;28;20042;-72
2024/04/03 10:06:16;;;;;;;3.20;1.77;;;20.40;48.60;;;;;;4979477;28;20038;-70
2024/04/03 10:08:44;;;;;;;5.20;2.85;;;20.30;48.10;;;;;;4972578;28;20087;-71
2024/04/03 10:11:15;;;;;;;3.97;2.13;;;20.40;49.10;;;;;;4972571;28;20084;-71
2024/04/03 10:13:46;;;;;;;3.67;1.90;;;20.40;49.10;;;;;;4968063;28;20037;-73
2024/04/03 10:16:14;;;;;;;5.03;2.15;;;20.40;49.10;;;;;;4972509;28;20034;-71
2024/04/03 10:18:47;;;;;;;5.25;2.00;;;20.30;49.30;;;;;;4962362;28;20041;-70
2024/04/03 10:21:14;;;;;;;4.13;1.88;;;20.20;48.20;;;;;;4983868;28;20026;-72
2024/04/03 10:23:48;;;;;;;5.07;2.03;;;20.20;48.80;;;;;;4972636;28;20091;-72
2024/04/03 10:26:20;;;;;;;3.17;1.75;;;20.50;48.70;;;;;;4972485;28;20027;-72
2024/04/03 10:28:47;;;;;;;6.93;1.80;;;20.60;47.90;;;;;;4972360;28;20389;-74
2024/04/03 10:31:20;;;;;;;4.05;1.80;;;20.90;48.10;;;;;;4977082;28;20084;-74
2024/04/03 10:33:50;;;;;;;4.63;2.38;;;21.00;47.40;;;;;;4973887;28;20621;-72
2024/04/03 10:36:17;;;;;;;2.70;1.73;;;21.10;46.60;;;;;;4972924;28;20469;-71
2024/04/03 10:38:44;;;;;;;6.03;1.98;;;21.40;47.60;;;;;;4971896;28;20030;-71
2024/04/03 10:41:11;;;;;;;7.63;2.28;;;21.40;46.80;;;;;;4972902;28;20035;-72
2024/04/03 10:43:37;;;;;;;6.18;1.85;;;21.30;47.70;;;;;;4956940;28;20057;-72
2024/04/03 10:46:11;;;;;;;3.38;1.50;;;21.40;47.60;;;;;;4970541;28;20029;-72
2024/04/03 10:48:42;;;;;;;8.95;2.03;;;21.30;47.50;;;;;;4944708;28;20129;-73
2024/04/03 10:51:09;;;;;;;8.20;1.80;;;21.30;48.80;;;;;;4972303;28;20038;-72
2024/04/03 10:53:36;;;;;;;2.72;1.70;;;21.50;46.80;;;;;;4971874;28;20073;-72
2024/04/03 10:56:03;;;;;;;2.85;1.58;;;21.30;48.10;;;;;;4971912;28;20092;-72
2024/04/03 10:58:30;;;;;;;4.47;2.63;;;21.40;47.20;;;;;;4971788;28;20035;-71
2024/04/03 11:00:57;;;;;;;3.50;1.40;;;21.70;45.00;;;;;;4955846;28;20528;-71
2024/04/03 11:03:23;;;;;;;2.50;1.50;;;21.60;45.90;;;;;;4966041;28;20411;-71
2024/04/03 11:05:51;;;;;;;3.65;1.30;;;21.70;44.10;;;;;;4973709;28;20029;-70
2024/04/03 11:08:19;;;;;;;6.40;1.40;;;21.30;43.40;;;;;;4964270;28;20050;-72
2024/04/03 11:10:45;;;;;;;3.22;1.60;;;21.80;44.70;;;;;;4971489;28;20351;-70
2024/04/03 11:13:15;;;;;;;5.82;1.80;;;21.70;44.00;;;;;;4981158;28;20038;-71
2024/04/03 11:15:41;;;;;;;2.33;1.40;;;22.10;45.00;;;;;;4971340;28;20030;-70
2024/04/03 11:18:09;;;;;;;2.70;1.55;;;22.10;44.70;;;;;;4974024;28;20088;-73
2024/04/03 11:20:36;;;;;;;2.53;1.50;;;22.10;43.40;;;;;;4980828;28;20422;-71
2024/04/03 11:23:05;;;;;;;5.53;1.70;;;22.10;43.20;;;;;;4985599;28;20473;-72
2024/04/03 11:25:32;;;;;;;4.47;1.70;;;22.30;43.40;;;;;;4975398;28;20076;-73
2024/04/03 11:28:03;;;;;;;2.78;1.33;;;22.10;43.80;;;;;;4971811;28;20087;-72
2024/04/03 11:30:30;;;;;;;6.70;1.55;;;22.40;43.30;;;;;;4981833;28;20026;-71
2024/04/03 11:33:15;;;;;;;3.00;1.60;;;22.60;43.20;;;;;;4999257;28;20041;-71
2024/04/03 11:35:42;;;;;;;4.43;1.90;;;22.90;42.50;;;;;;4958136;28;20032;-71
2024/04/03 11:38:09;;;;;;;5.75;2.15;;;23.30;41.10;;;;;;4973655;28;20061;-71
2024/04/03 11:40:35;;;;;;;6.38;3.22;;;23.20;41.40;;;;;;4977286;28;20034;-72
2024/04/03 11:43:01;;;;;;;5.22;2.80;;;22.50;41.20;;;;;;4958294;28;20183;-71
2024/04/03 11:45:28;;;;;;;8.63;2.60;;;22.10;41.30;;;;;;4975796;28;20134;-71
2024/04/03 11:47:54;;;;;;;6.15;2.20;;;21.80;42.10;;;;;;4976631;28;20038;-71
2024/04/03 11:50:21;;;;;;;4.80;2.17;;;21.40;42.70;;;;;;4971108;28;20050;-72
2024/04/03 11:52:48;;;;;;;3.45;2.00;;;21.30;43.60;;;;;;4976616;28;20068;-72
2024/04/03 11:55:14;;;;;;;4.13;1.75;;;20.80;43.10;;;;;;4974856;28;20401;-70
2024/04/03 11:57:41;;;;;;;3.88;1.70;;;21.60;43.60;;;;;;4977713;28;20030;-71
2024/04/03 12:00:14;;;;;;;2.88;1.70;;;25.30;41.50;;;;;;4974641;28;20042;-70
2024/04/03 12:02:42;;;;;;;3.60;1.90;;;27.70;38.80;;;;;;4960682;28;20493;-71
2024/04/03 12:05:08;;;;;;;4.40;1.80;;;29.30;38.40;;;;;;5006282;28;20038;-71
2024/04/03 12:07:36;;;;;;;3.30;1.63;;;29.90;37.70;;;;;;4973018;28;20030;-72
2024/04/03 12:10:06;;;;;;;2.08;1.40;;;27.80;37.80;;;;;;4981510;28;20039;-71
2024/04/03 12:12:37;;;;;;;3.20;1.88;;;28.80;37.90;;;;;;4972581;28;20034;-71
2024/04/03 12:15:04;;;;;;;;;;;30.00;37.60;;;;;;4983067;28;20155;-72
2024/04/03 12:17:33;;;;;;;3.80;1.45;;;31.70;37.20;;;;;;4974348;28;20032;-72
2024/04/03 12:20:09;;;;;;;4.45;1.35;;;32.60;36.50;;;;;;4987493;28;20045;-72
2024/04/03 12:22:35;;;;;;;8.98;1.20;;;30.20;36.30;;;;;;4979733;28;20038;-72
2024/04/03 12:25:04;;;;;;;1.77;1.05;;;29.60;36.60;;;;;;4974554;28;20487;-71
2024/04/03 12:27:32;;;;;;;5.55;2.13;;;28.80;37.60;;;;;;4974058;28;20072;-69
2024/04/03 12:29:58;;;;;;;2.03;1.05;;;29.10;38.30;;;;;;4981764;28;20385;-73
2024/04/03 12:32:24;;;;;;;3.83;1.33;;;30.10;37.20;;;;;;4985904;28;20083;-72
2024/04/03 12:34:53;;;;;;;3.03;1.10;;;30.70;36.50;;;;;;4976714;28;20062;-71
2024/04/03 12:37:20;;;;;;;2.97;1.05;;;31.80;36.70;;;;;;4946145;28;20121;-71
2024/04/03 12:39:49;;;;;;;3.70;1.00;;;32.20;35.80;;;;;;4963263;28;20038;-74
2024/04/03 12:42:20;;;;;;;5.75;1.35;;;32.40;36.20;;;;;;4974981;28;20070;-72
2024/04/03 12:44:48;;;;;;;2.38;1.00;;;32.90;36.50;;;;;;4986424;28;20370;-74
2024/04/03 12:47:14;;;;;;;2.00;0.98;;;32.20;36.00;;;;;;4973778;28;20430;-72
2024/04/03 12:49:41;;;;;;;4.80;0.90;;;31.50;35.60;;;;;;4976238;28;20041;-71
2024/04/03 12:52:07;;;;;;;2.78;0.80;;;31.70;35.90;;;;;;4986894;28;20111;-71